Observation data for Plainview on 02/14/2018      Previous  Date  Next       Current Mesonet Observations  Soil Data  Daily Summary Page  Observations in Plain Language
KPVS 140600Z 20007KT 07/02 A3022 RMK A01 T00690021  RH  072%=      5-min Rain = 0
KPVS 140605Z 20008KT 07/02 A3022 RMK A01 T00720022  RH  072%=      5-min Rain = 0
KPVS 140610Z 20008KT 07/02 A3022 RMK A01 T00740023  RH  071%=      5-min Rain = 0
KPVS 140615Z 20008KT 07/02 A3022 RMK A01 T00730023  RH  071%=      5-min Rain = 0
KPVS 140620Z 20008KT 07/03 A3022 RMK A01 T00740026  RH  072%=      5-min Rain = 0
KPVS 140625Z 20007KT 08/03 A3021 RMK A01 T00780031  RH  073%=      5-min Rain = 0
KPVS 140630Z 20007KT 08/04 A3021 RMK A01 T00820037  RH  074%=      5-min Rain = 0
KPVS 140635Z 21009KT 09/04 A3021 RMK A01 T00860036  RH  072%=      5-min Rain = 0
KPVS 140640Z 21009KT 08/03 A3021 RMK A01 T00830034  RH  072%=      5-min Rain = 0
KPVS 140645Z 21009KT 08/03 A3021 RMK A01 T00830034  RH  072%=      5-min Rain = 0
KPVS 140650Z 20008KT 08/03 A3021 RMK A01 T00820034  RH  073%=      5-min Rain = 0
KPVS 140655Z 21008KT 08/04 A302 RMK A01 T00840036  RH  073%=      5-min Rain = 0
KPVS 140700Z 21009KT 08/04 A302 RMK A01 T00840036  RH  073%=      5-min Rain = 0
KPVS 140705Z 21008KT 08/04 A3021 RMK A01 T00840036  RH  073%=      5-min Rain = 0
KPVS 140710Z 21007KT 08/03 A3021 RMK A01 T00820034  RH  073%=      5-min Rain = 0
KPVS 140715Z 22006KT 08/03 A3021 RMK A01 T00820033  RH  072%=      5-min Rain = 0
KPVS 140720Z 22005KT 08/03 A302 RMK A01 T00760025  RH  071%=      5-min Rain = 0
KPVS 140725Z 21005KT 07/02 A302 RMK A01 T00730023  RH  072%=      5-min Rain = 0
KPVS 140730Z 21006KT 07/02 A302 RMK A01 T00720022  RH  071%=      5-min Rain = 0
KPVS 140735Z 22005KT 07/02 A302 RMK A01 T00710021  RH  071%=      5-min Rain = 0
KPVS 140740Z 22005KT 07/02 A302 RMK A01 T00710021  RH  072%=      5-min Rain = 0
KPVS 140745Z 23005KT 07/02 A302 RMK A01 T00690019  RH  072%=      5-min Rain = 0
KPVS 140750Z 23005KT 07/02 A302 RMK A01 T00660017  RH  072%=      5-min Rain = 0
KPVS 140755Z 23005KT 06/02 A302 RMK A01 T00630016  RH  073%=      5-min Rain = 0
KPVS 140800Z 23005KT 06/02 A302 RMK A01 T00610016  RH  073%=      5-min Rain = 0
KPVS 140805Z 24004KT 06/02 A302 RMK A01 T00610015  RH  073%=      5-min Rain = 0
KPVS 140810Z 24003KT 06/01 A302 RMK A01 T00590014  RH  074%=      5-min Rain = 0
KPVS 140815Z 24003KT 06/01 A302 RMK A01 T00590014  RH  074%=      5-min Rain = 0
KPVS 140820Z 23003KT 06/02 A302 RMK A01 T00600015  RH  074%=      5-min Rain = 0
KPVS 140825Z 23003KT 06/02 A302 RMK A01 T00610016  RH  074%=      5-min Rain = 0
KPVS 140830Z 23004KT 06/02 A302 RMK A01 T00630016  RH  073%=      5-min Rain = 0
KPVS 140835Z 23004KT 07/02 A3019 RMK A01 T00650016  RH  071%=      5-min Rain = 0
KPVS 140840Z 23003KT 07/02 A3019 RMK A01 T00660015  RH  071%=      5-min Rain = 0
KPVS 140845Z 22004KT 07/02 A3019 RMK A01 T00670015  RH  070%=      5-min Rain = 0
KPVS 140850Z 22004KT 07/01 A3019 RMK A01 T00670014  RH  070%=      5-min Rain = 0
KPVS 140855Z 22005KT 07/01 A3019 RMK A01 T00660013  RH  069%=      5-min Rain = 0
KPVS 140900Z 23004KT 07/01 A3018 RMK A01 T00650012  RH  069%=      5-min Rain = 0
KPVS 140905Z 23003KT 07/01 A3018 RMK A01 T00650011  RH  070%=      5-min Rain = 0
KPVS 140910Z 22004KT 06/01 A3017 RMK A01 T00630011  RH  070%=      5-min Rain = 0
KPVS 140915Z 21005KT 06/01 A3017 RMK A01 T00630010  RH  070%=      5-min Rain = 0
KPVS 140920Z 22005KT 07/01 A3018 RMK A01 T00650011  RH  069%=      5-min Rain = 0
KPVS 140925Z 25004KT 06/01 A3018 RMK A01 T00640009  RH  069%=      5-min Rain = 0
KPVS 140930Z 25005KT 06/01 A3018 RMK A01 T00600008  RH  070%=      5-min Rain = 0
KPVS 140935Z 24004KT 06/01 A3018 RMK A01 T00630009  RH  069%=      5-min Rain = 0
KPVS 140940Z 23003KT 06/01 A3018 RMK A01 T00640009  RH  069%=      5-min Rain = 0
KPVS 140945Z 25004KT 06/01 A3018 RMK A01 T00640008  RH  068%=      5-min Rain = 0
KPVS 140950Z 23005KT 07/01 A3018 RMK A01 T00650009  RH  068%=      5-min Rain = 0
KPVS 140955Z 25004KT 07/01 A3018 RMK A01 T00660008  RH  067%=      5-min Rain = 0
KPVS 141000Z 25004KT 07/01 A3018 RMK A01 T00650007  RH  067%=      5-min Rain = 0
KPVS 141005Z 24004KT 06/01 A3018 RMK A01 T00640007  RH  067%=      5-min Rain = 0
KPVS 141010Z 24004KT 06/01 A3017 RMK A01 T00640007  RH  067%=      5-min Rain = 0
KPVS 141015Z 24004KT 06/01 A3018 RMK A01 T00630006  RH  067%=      5-min Rain = 0
KPVS 141020Z 24005KT 06/01 A3018 RMK A01 T00610005  RH  068%=      5-min Rain = 0
KPVS 141025Z 25004KT 06/00 A3018 RMK A01 T00600004  RH  068%=      5-min Rain = 0
KPVS 141030Z 25003KT 06/00 A3017 RMK A01 T00590004  RH  068%=      5-min Rain = 0
KPVS 141035Z 24003KT 06/00 A3017 RMK A01 T00580003  RH  068%=      5-min Rain = 0
KPVS 141040Z 25004KT 06/00 A3017 RMK A01 T00560002  RH  069%=      5-min Rain = 0
KPVS 141045Z 24004KT 06/00 A3017 RMK A01 T00570002  RH  068%=      5-min Rain = 0
KPVS 141050Z 24005KT 06/00 A3017 RMK A01 T00550000  RH  069%=      5-min Rain = 0
KPVS 141055Z 24005KT 05/00 A3017 RMK A01 T00540000  RH  069%=      5-min Rain = 0
KPVS 141100Z 24005KT 05/M00 A3017 RMK A01 T00531002  RH  069%=      5-min Rain = 0
KPVS 141105Z 24005KT 05/M00 A3018 RMK A01 T00511002  RH  069%=      5-min Rain = 0
KPVS 141110Z 24005KT 05/M00 A3018 RMK A01 T00521002  RH  069%=      5-min Rain = 0
KPVS 141115Z 23005KT 05/M00 A3017 RMK A01 T00511004  RH  068%=      5-min Rain = 0
KPVS 141120Z 23006KT 05/M01 A3018 RMK A01 T00461006  RH  070%=      5-min Rain = 0
KPVS 141125Z 22006KT 05/M01 A3018 RMK A01 T00451005  RH  071%=      5-min Rain = 0
KPVS 141130Z 23007KT 05/M01 A3018 RMK A01 T00461005  RH  070%=      5-min Rain = 0
KPVS 141135Z 22007KT 05/M00 A3018 RMK A01 T00491004  RH  069%=      5-min Rain = 0
KPVS 141140Z 23007KT 05/M00 A3018 RMK A01 T00521003  RH  068%=      5-min Rain = 0
KPVS 141145Z 24007KT 05/M00 A3018 RMK A01 T00531004  RH  067%=      5-min Rain = 0
KPVS 141150Z 23007KT 05/M01 A3018 RMK A01 T00531005  RH  067%=      5-min Rain = 0
KPVS 141155Z 24006KT 05/M01 A3018 RMK A01 T00511005  RH  068%=      5-min Rain = 0
KPVS 141200Z 22007KT 05/M01 A3018 RMK A01 T00501006  RH  068%=      5-min Rain = 0
KPVS 141205Z 23007KT 05/M01 A3019 RMK A01 T00521005  RH  068%=      5-min Rain = 0
KPVS 141210Z 22006KT 05/M01 A3018 RMK A01 T00511006  RH  067%=      5-min Rain = 0
KPVS 141215Z 23006KT 05/M01 A3018 RMK A01 T00501006  RH  068%=      5-min Rain = 0
KPVS 141220Z 24006KT 05/M01 A3019 RMK A01 T00511006  RH  068%=      5-min Rain = 0
KPVS 141225Z 23008KT 05/M01 A3019 RMK A01 T00511006  RH  067%=      5-min Rain = 0
KPVS 141230Z 23008KT 05/M01 A3019 RMK A01 T00511007  RH  067%=      5-min Rain = 0
KPVS 141235Z 24007KT 05/M01 A3018 RMK A01 T00521007  RH  067%=      5-min Rain = 0
KPVS 141240Z 24007KT 05/M01 A3019 RMK A01 T00511007  RH  067%=      5-min Rain = 0
KPVS 141245Z 24007KT 05/M01 A3018 RMK A01 T00521007  RH  067%=      5-min Rain = 0
KPVS 141250Z 24006KT 05/M01 A3018 RMK A01 T00531006  RH  066%=      5-min Rain = 0
KPVS 141255Z 23006KT 06/M01 A3018 RMK A01 T00551006  RH  065%=      5-min Rain = 0
KPVS 141300Z 22007KT 06/M01 A3018 RMK A01 T00561006  RH  065%=      5-min Rain = 0
KPVS 141305Z 23006KT 06/M01 A3018 RMK A01 T00571006  RH  065%=      5-min Rain = 0
KPVS 141310Z 22005KT 06/M01 A3018 RMK A01 T00561007  RH  065%=      5-min Rain = 0
KPVS 141315Z 22005KT 05/M01 A3017 RMK A01 T00541008  RH  065%=      5-min Rain = 0
KPVS 141320Z 22004KT 05/M01 A3018 RMK A01 T00511009  RH  066%=      5-min Rain = 0
KPVS 141325Z 22005KT 05/M01 A3018 RMK A01 T00481010  RH  067%=      5-min Rain = 0
KPVS 141330Z 22004KT 04/M01 A3018 RMK A01 T00441011  RH  068%=      5-min Rain = 0
KPVS 141335Z 23004KT 04/M01 A3017 RMK A01 T00421011  RH  069%=      5-min Rain = 0
KPVS 141340Z 24004KT 04/M01 A3017 RMK A01 T00391013  RH  070%=      5-min Rain = 0
KPVS 141345Z 24004KT 04/M01 A3018 RMK A01 T00381012  RH  070%=      5-min Rain = 0
KPVS 141350Z 24004KT 04/M01 A3018 RMK A01 T00371013  RH  071%=      5-min Rain = 0
KPVS 141355Z 23004KT 04/M01 A3018 RMK A01 T00351013  RH  071%=      5-min Rain = 0
KPVS 141400Z 26003KT 03/M01 A3018 RMK A01 T00341014  RH  071%=      5-min Rain = 0
KPVS 141405Z 25004KT 03/M02 A3018 RMK A01 T00301015  RH  073%=      5-min Rain = 0
KPVS 141410Z 24005KT 03/M01 A3018 RMK A01 T00331013  RH  073%=      5-min Rain = 0
KPVS 141415Z 22006KT 04/M01 A3017 RMK A01 T00361011  RH  072%=      5-min Rain = 0
KPVS 141420Z 24005KT 04/M01 A3017 RMK A01 T00381010  RH  071%=      5-min Rain = 0
KPVS 141425Z 22005KT 04/M01 A3017 RMK A01 T00411009  RH  071%=      5-min Rain = 0
KPVS 141430Z 23005KT 04/M01 A3017 RMK A01 T00441008  RH  070%=      5-min Rain = 0
KPVS 141435Z 23005KT 05/M01 A3017 RMK A01 T00471008  RH  068%=      5-min Rain = 0
KPVS 141440Z 23006KT 05/M01 A3018 RMK A01 T00501008  RH  067%=      5-min Rain = 0
KPVS 141445Z 24006KT 05/M01 A3018 RMK A01 T00531007  RH  066%=      5-min Rain = 0
KPVS 141450Z 24005KT 06/M01 A3018 RMK A01 T00571007  RH  064%=      5-min Rain = 0
KPVS 141455Z 24006KT 06/M01 A3018 RMK A01 T00621006  RH  062%=      5-min Rain = 0
KPVS 141500Z 24006KT 07/M01 A3018 RMK A01 T00671006  RH  060%=      5-min Rain = 0
KPVS 141505Z 25006KT 07/M01 A3018 RMK A01 T00731005  RH  059%=      5-min Rain = 0
KPVS 141510Z 26005KT 08/M00 A3017 RMK A01 T00801003  RH  056%=      5-min Rain = 0
KPVS 141515Z 24005KT 09/M00 A3018 RMK A01 T00871003  RH  054%=      5-min Rain = 0
KPVS 141520Z 22007KT 09/M00 A3018 RMK A01 T00931002  RH  052%=      5-min Rain = 0
KPVS 141525Z 22007KT 10/M00 A3019 RMK A01 T00981001  RH  051%=      5-min Rain = 0
KPVS 141530Z 23008KT 10/M00 A3019 RMK A01 T01011001  RH  049%=      5-min Rain = 0
KPVS 141535Z 23008G13KT 10/M00 A3019 RMK A01 T01021001  RH  049%=      5-min Rain = 0
KPVS 141540Z 23007G12KT 10/M00 A3019 RMK A01 T01021001  RH  049%=      5-min Rain = 0
KPVS 141545Z 23006KT 10/00 A3019 RMK A01 T010400-0  RH  049%=      5-min Rain = 0
KPVS 141550Z 23007KT 11/00 A3019 RMK A01 T01070001  RH  048%=      5-min Rain = 0
KPVS 141555Z 24007KT 11/00 A3019 RMK A01 T01110001  RH  047%=      5-min Rain = 0
KPVS 141600Z 24007G12KT 12/00 A3018 RMK A01 T01170001  RH  045%=      5-min Rain = 0
KPVS 141605Z 23007KT 12/00 A3018 RMK A01 T01220002  RH  044%=      5-min Rain = 0
KPVS 141610Z 23010KT 12/00 A3018 RMK A01 T01240001  RH  043%=      5-min Rain = 0
KPVS 141615Z 23010KT 13/00 A3018 RMK A01 T01270000  RH  042%=      5-min Rain = 0
KPVS 141620Z 23008KT 13/00 A3018 RMK A01 T01300001  RH  042%=      5-min Rain = 0
KPVS 141625Z 23007KT 14/00 A3018 RMK A01 T01360002  RH  040%=      5-min Rain = 0
KPVS 141630Z 23010KT 14/00 A3018 RMK A01 T01410001  RH  039%=      5-min Rain = 0
KPVS 141635Z 23010G15KT 15/00 A3018 RMK A01 T01450000  RH  037%=      5-min Rain = 0
KPVS 141640Z 23010G16KT 15/M00 A3018 RMK A01 T01491001  RH  036%=      5-min Rain = 0
KPVS 141645Z 24011KT 15/00 A3017 RMK A01 T015400-0  RH  035%=      5-min Rain = 0
KPVS 141650Z 23013KT 16/M00 A3017 RMK A01 T01601002  RH  034%=      5-min Rain = 0
KPVS 141655Z 23013G18KT 17/M00 A3017 RMK A01 T01671004  RH  032%=      5-min Rain = 0
KPVS 141700Z 23014G21KT 17/M01 A3017 RMK A01 T01701005  RH  031%=      5-min Rain = 0
KPVS 141705Z 22013KT 17/M00 A3017 RMK A01 T01721004  RH  031%=      5-min Rain = 0
KPVS 141710Z 23012KT 18/M00 A3017 RMK A01 T01751003  RH  030%=      5-min Rain = 0
KPVS 141715Z 23013KT 18/M00 A3016 RMK A01 T01781003  RH  030%=      5-min Rain = 0
KPVS 141720Z 23013KT 18/M00 A3016 RMK A01 T01811001  RH  030%=      5-min Rain = 0
KPVS 141725Z 23013G18KT 19/M00 A3016 RMK A01 T01851002  RH  029%=      5-min Rain = 0
KPVS 141730Z 22012G17KT 19/00 A3016 RMK A01 T018800-0  RH  028%=      5-min Rain = 0
KPVS 141735Z 23011G17KT 19/M00 A3015 RMK A01 T01921001  RH  028%=      5-min Rain = 0
KPVS 141740Z 22012KT 20/M00 A3015 RMK A01 T01971003  RH  026%=      5-min Rain = 0
KPVS 141745Z 22012KT 20/M00 A3015 RMK A01 T01991003  RH  026%=      5-min Rain = 0
KPVS 141750Z 22013G18KT 21/M01 A3015 RMK A01 T02061006  RH  024%=      5-min Rain = 0
KPVS 141755Z 22012G18KT 21/M01 A3014 RMK A01 T02121011  RH  023%=      5-min Rain = 0
KPVS 141800Z 22013G19KT 22/M02 A3014 RMK A01 T02161015  RH  022%=      5-min Rain = 0
KPVS 141805Z 22015G20KT 22/M02 A3014 RMK A01 T02171023  RH  020%=      5-min Rain = 0
KPVS 141810Z 21017G22KT 22/M03 A3013 RMK A01 T02181027  RH  019%=      5-min Rain = 0
KPVS 141815Z 22015G20KT 22/M03 A3013 RMK A01 T02231026  RH  019%=      5-min Rain = 0
KPVS 141820Z 21014G19KT 23/M03 A3013 RMK A01 T02251026  RH  019%=      5-min Rain = 0
KPVS 141825Z 22013G19KT 22/M03 A3012 RMK A01 T02241030  RH  018%=      5-min Rain = 0
KPVS 141830Z 22013G19KT 23/M03 A3012 RMK A01 T02251030  RH  018%=      5-min Rain = 0
KPVS 141835Z 21014G21KT 23/M03 A3012 RMK A01 T02271030  RH  018%=      5-min Rain = 0
KPVS 141840Z 22015G20KT 23/M03 A3012 RMK A01 T02281032  RH  018%=      5-min Rain = 0
KPVS 141845Z 22012G18KT 23/M03 A3012 RMK A01 T02321032  RH  017%=      5-min Rain = 0
KPVS 141850Z 21014G19KT 23/M03 A3012 RMK A01 T02331032  RH  017%=      5-min Rain = 0
KPVS 141855Z 22014G24KT 24/M04 A3011 RMK A01 T02361036  RH  016%=      5-min Rain = 0
KPVS 141900Z 22016G22KT 24/M04 A3011 RMK A01 T02371039  RH  016%=      5-min Rain = 0
KPVS 141905Z 23014G19KT 24/M04 A301 RMK A01 T02401044  RH  015%=      5-min Rain = 0
KPVS 141910Z 22014G19KT 24/M05 A301 RMK A01 T02421047  RH  014%=      5-min Rain = 0
KPVS 141915Z 21016KT 24/M05 A3009 RMK A01 T02421048  RH  014%=      5-min Rain = 0
KPVS 141920Z 23015KT 24/M06 A3009 RMK A01 T02421055  RH  014%=      5-min Rain = 0
KPVS 141925Z 23013G19KT 25/M05 A3008 RMK A01 T02451052  RH  014%=      5-min Rain = 0
KPVS 141930Z 21017G22KT 25/M06 A3008 RMK A01 T02491063  RH  012%=      5-min Rain = 0
KPVS 141935Z 22018G25KT 25/M07 A3007 RMK A01 T02471065  RH  012%=      5-min Rain = 0
KPVS 141940Z 22017G27KT 25/M06 A3008 RMK A01 T02491064  RH  012%=      5-min Rain = 0
KPVS 141945Z 23019G27KT 25/M07 A3007 RMK A01 T02511065  RH  012%=      5-min Rain = 0
KPVS 141950Z 23016G24KT 25/M06 A3007 RMK A01 T02521063  RH  012%=      5-min Rain = 0
KPVS 141955Z 22016G24KT 26/M06 A3007 RMK A01 T02551061  RH  012%=      5-min Rain = 0
KPVS 142000Z 23018G25KT 25/M06 A3006 RMK A01 T02531064  RH  012%=      5-min Rain = 0
KPVS 142005Z 22018G27KT 25/M06 A3005 RMK A01 T02541064  RH  012%=      5-min Rain = 0
KPVS 142010Z 22019G25KT 26/M07 A3005 RMK A01 T02551065  RH  012%=      5-min Rain = 0
KPVS 142015Z 23019G26KT 25/M07 A3004 RMK A01 T02541067  RH  011%=      5-min Rain = 0
KPVS 142020Z 22018G24KT 26/M06 A3004 RMK A01 T02581064  RH  012%=      5-min Rain = 0
KPVS 142025Z 22018G27KT 26/M06 A3004 RMK A01 T02621064  RH  011%=      5-min Rain = 0
KPVS 142030Z 22017G29KT 26/M06 A3003 RMK A01 T02611063  RH  011%=      5-min Rain = 0
KPVS 142035Z 21018G26KT 26/M06 A3003 RMK A01 T02601063  RH  011%=      5-min Rain = 0
KPVS 142040Z 22016G24KT 26/M06 A3003 RMK A01 T02591062  RH  012%=      5-min Rain = 0
KPVS 142045Z 23015G24KT 26/M06 A3002 RMK A01 T02621061  RH  012%=      5-min Rain = 0
KPVS 142050Z 23018G27KT 27/M06 A3002 RMK A01 T02651058  RH  012%=      5-min Rain = 0
KPVS 142055Z 23021G30KT 27/M05 A3002 RMK A01 T02651054  RH  012%=      5-min Rain = 0
KPVS 142100Z 23022G30KT 26/M05 A3001 RMK A01 T02641052  RH  012%=      5-min Rain = 0
KPVS 142105Z 22020G26KT 26/M05 A3001 RMK A01 T02641052  RH  012%=      5-min Rain = 0
KPVS 142110Z 23021G26KT 27/M05 A30 RMK A01 T02651051  RH  012%=      5-min Rain = 0
KPVS 142115Z 22019G30KT 27/M05 A30 RMK A01 T02661050  RH  012%=      5-min Rain = 0
KPVS 142120Z 22021G33KT 27/M05 A30 RMK A01 T02681045  RH  013%=      5-min Rain = 0
KPVS 142125Z 23020G27KT 27/M05 A30 RMK A01 T02681045  RH  013%=      5-min Rain = 0
KPVS 142130Z 22019G30KT 27/M04 A30 RMK A01 T02671042  RH  013%=      5-min Rain = 0
KPVS 142135Z 23021G29KT 27/M03 A30 RMK A01 T02681033  RH  014%=      5-min Rain = 0
KPVS 142140Z 23020G27KT 27/M03 A30 RMK A01 T02661029  RH  014%=      5-min Rain = 0
KPVS 142145Z 22018G26KT 27/M03 A2999 RMK A01 T02681025  RH  015%=      5-min Rain = 0
KPVS 142150Z 24020G28KT 27/M02 A2999 RMK A01 T02711021  RH  015%=      5-min Rain = 0
KPVS 142155Z 23020G28KT 27/M02 A2999 RMK A01 T02721017  RH  015%=      5-min Rain = 0
KPVS 142200Z 23021G31KT 27/M02 A2998 RMK A01 T02721015  RH  015%=      5-min Rain = 0
KPVS 142205Z 22022G33KT 27/M02 A2998 RMK A01 T02711018  RH  015%=      5-min Rain = 0
KPVS 142210Z 23023G29KT 27/M02 A2998 RMK A01 T02711015  RH  015%=      5-min Rain = 0
KPVS 142215Z 23021G28KT 27/M01 A2998 RMK A01 T02701011  RH  016%=      5-min Rain = 0
KPVS 142220Z 23020G29KT 27/M01 A2997 RMK A01 T02711008  RH  016%=      5-min Rain = 0
KPVS 142225Z 23019G27KT 27/M01 A2997 RMK A01 T02721010  RH  016%=      5-min Rain = 0
KPVS 142230Z 23021G27KT 27/M01 A2997 RMK A01 T02711009  RH  016%=      5-min Rain = 0
KPVS 142235Z 22020G29KT 27/M01 A2997 RMK A01 T02681007  RH  017%=      5-min Rain = 0
KPVS 142240Z 23020G29KT 26/M01 A2997 RMK A01 T02641007  RH  017%=      5-min Rain = 0
KPVS 142245Z 22021G29KT 26/M01 A2997 RMK A01 T02641009  RH  017%=      5-min Rain = 0
KPVS 142250Z 22019G26KT 27/M01 A2997 RMK A01 T02651006  RH  017%=      5-min Rain = 0
KPVS 142255Z 22022G32KT 27/M01 A2997 RMK A01 T02671006  RH  017%=      5-min Rain = 0
KPVS 142300Z 22019G25KT 27/M01 A2997 RMK A01 T02661005  RH  017%=      5-min Rain = 0
KPVS 142305Z 22020G28KT 26/M00 A2997 RMK A01 T02641003  RH  018%=      5-min Rain = 0
KPVS 142310Z 22019G27KT 26/M00 A2997 RMK A01 T02641003  RH  018%=      5-min Rain = 0
KPVS 142315Z 23019G27KT 26/M01 A2997 RMK A01 T02641006  RH  017%=      5-min Rain = 0
KPVS 142320Z 22019G28KT 26/M01 A2997 RMK A01 T02641008  RH  017%=      5-min Rain = 0
KPVS 142325Z 23019G26KT 26/M01 A2996 RMK A01 T02631008  RH  017%=      5-min Rain = 0
KPVS 142330Z 23015G20KT 26/M01 A2996 RMK A01 T02611008  RH  017%=      5-min Rain = 0
KPVS 142335Z 22017G23KT 26/M01 A2996 RMK A01 T02601009  RH  017%=      5-min Rain = 0
KPVS 142340Z 23015G23KT 26/M01 A2996 RMK A01 T02581009  RH  017%=      5-min Rain = 0
KPVS 142345Z 23018G24KT 26/M01 A2996 RMK A01 T02561013  RH  017%=      5-min Rain = 0
KPVS 142350Z 23015G23KT 26/M01 A2996 RMK A01 T02551013  RH  017%=      5-min Rain = 0
KPVS 142355Z 22018G25KT 25/M01 A2996 RMK A01 T02531014  RH  017%=      5-min Rain = 0
KPVS 150000Z 22016G23KT 25/M01 A2996 RMK A01 T02501013  RH  018%=      5-min Rain = 0
KPVS 150005Z 22015G21KT 25/M01 A2997 RMK A01 T02471012  RH  018%=      5-min Rain = 0
KPVS 150010Z 22014G20KT 25/M02 A2997 RMK A01 T02451015  RH  018%=      5-min Rain = 0
KPVS 150015Z 22014G21KT 24/M02 A2997 RMK A01 T02421016  RH  018%=      5-min Rain = 0
KPVS 150020Z 22012G17KT 24/M02 A2997 RMK A01 T02401016  RH  018%=      5-min Rain = 0
KPVS 150025Z 22011KT 24/M02 A2997 RMK A01 T02371016  RH  019%=      5-min Rain = 0
KPVS 150030Z 22010KT 23/M02 A2997 RMK A01 T02321016  RH  019%=      5-min Rain = 0
KPVS 150035Z 22009KT 23/M02 A2997 RMK A01 T02271017  RH  020%=      5-min Rain = 0
KPVS 150040Z 22008KT 22/M02 A2997 RMK A01 T02221017  RH  020%=      5-min Rain = 0
KPVS 150045Z 22009KT 22/M02 A2997 RMK A01 T02191018  RH  021%=      5-min Rain = 0
KPVS 150050Z 23009KT 22/M02 A2997 RMK A01 T02161019  RH  021%=      5-min Rain = 0
KPVS 150055Z 22009KT 21/M02 A2997 RMK A01 T02141020  RH  021%=      5-min Rain = 0
KPVS 150100Z 23010KT 21/M02 A2997 RMK A01 T02141021  RH  021%=      5-min Rain = 0
KPVS 150105Z 23010KT 21/M02 A2997 RMK A01 T02121021  RH  021%=      5-min Rain = 0
KPVS 150110Z 23009G14KT 21/M02 A2997 RMK A01 T02091021  RH  021%=      5-min Rain = 0
KPVS 150115Z 23009KT 21/M02 A2997 RMK A01 T02061021  RH  022%=      5-min Rain = 0
KPVS 150120Z 22008KT 20/M02 A2997 RMK A01 T02021022  RH  022%=      5-min Rain = 0
KPVS 150125Z 21009KT 20/M02 A2998 RMK A01 T01991022  RH  023%=      5-min Rain = 0
KPVS 150130Z 21008KT 19/M02 A2998 RMK A01 T01921021  RH  024%=      5-min Rain = 0
KPVS 150135Z 21009KT 19/M02 A2998 RMK A01 T01911020  RH  024%=      5-min Rain = 0
KPVS 150140Z 21009KT 19/M02 A2998 RMK A01 T01931020  RH  024%=      5-min Rain = 0
KPVS 150145Z 21009KT 19/M02 A2997 RMK A01 T01911020  RH  024%=      5-min Rain = 0
KPVS 150150Z 21010KT 19/M02 A2997 RMK A01 T01901020  RH  024%=      5-min Rain = 0
KPVS 150155Z 21011KT 19/M02 A2997 RMK A01 T01931020  RH  024%=      5-min Rain = 0
KPVS 150200Z 21012KT 20/M02 A2997 RMK A01 T01951020  RH  024%=      5-min Rain = 0
KPVS 150205Z 21011G16KT 20/M02 A2997 RMK A01 T01961019  RH  024%=      5-min Rain = 0
KPVS 150210Z 21013KT 20/M02 A2997 RMK A01 T01961018  RH  024%=      5-min Rain = 0
KPVS 150215Z 21012KT 20/M02 A2997 RMK A01 T01961018  RH  024%=      5-min Rain = 0
KPVS 150220Z 21011KT 20/M02 A2997 RMK A01 T01951017  RH  024%=      5-min Rain = 0
KPVS 150225Z 21012KT 20/M02 A2998 RMK A01 T01961015  RH  024%=      5-min Rain = 0
KPVS 150230Z 21013KT 20/M01 A2998 RMK A01 T01961014  RH  024%=      5-min Rain = 0
KPVS 150235Z 21013KT 20/M01 A2998 RMK A01 T01971014  RH  024%=      5-min Rain = 0
KPVS 150240Z 21013KT 20/M01 A2998 RMK A01 T01971014  RH  024%=      5-min Rain = 0
KPVS 150245Z 21012KT 20/M01 A2998 RMK A01 T01961013  RH  025%=      5-min Rain = 0
KPVS 150250Z 21013KT 19/M01 A2998 RMK A01 T01921013  RH  025%=      5-min Rain = 0
KPVS 150255Z 21012KT 19/M01 A2998 RMK A01 T01911014  RH  025%=      5-min Rain = 0
KPVS 150300Z 21013KT 19/M01 A2999 RMK A01 T01911014  RH  025%=      5-min Rain = 0
KPVS 150305Z 21012G17KT 19/M02 A2999 RMK A01 T01881015  RH  026%=      5-min Rain = 0
KPVS 150310Z 20011KT 19/M01 A2999 RMK A01 T01851014  RH  026%=      5-min Rain = 0
KPVS 150315Z 20012KT 18/M01 A2999 RMK A01 T01831013  RH  027%=      5-min Rain = 0
KPVS 150320Z 19012KT 18/M02 A2999 RMK A01 T01791015  RH  027%=      5-min Rain = 0
KPVS 150325Z 21012KT 18/M02 A2999 RMK A01 T01761016  RH  027%=      5-min Rain = 0
KPVS 150330Z 20011KT 18/M02 A30 RMK A01 T01751016  RH  027%=      5-min Rain = 0
KPVS 150335Z 21010KT 17/M02 A30 RMK A01 T01701017  RH  028%=      5-min Rain = 0
KPVS 150340Z 21012KT 17/M01 A30 RMK A01 T01711014  RH  029%=      5-min Rain = 0
KPVS 150345Z 22010KT 17/M01 A30 RMK A01 T01731012  RH  029%=      5-min Rain = 0
KPVS 150350Z 22008KT 17/M01 A30 RMK A01 T01701011  RH  029%=      5-min Rain = 0
KPVS 150355Z 22009KT 17/M01 A30 RMK A01 T01691009  RH  030%=      5-min Rain = 0
KPVS 150400Z 21010KT 17/M01 A30 RMK A01 T01721007  RH  030%=      5-min Rain = 0
KPVS 150405Z 21010KT 18/M01 A30 RMK A01 T01771005  RH  029%=      5-min Rain = 0
KPVS 150410Z 21010KT 18/M00 A30 RMK A01 T01801004  RH  029%=      5-min Rain = 0
KPVS 150415Z 22011KT 18/M00 A30 RMK A01 T01831003  RH  029%=      5-min Rain = 0
KPVS 150420Z 21011KT 18/M00 A30 RMK A01 T01811003  RH  029%=      5-min Rain = 0
KPVS 150425Z 21011KT 18/M00 A30 RMK A01 T01781003  RH  030%=      5-min Rain = 0
KPVS 150430Z 20010KT 18/M00 A30 RMK A01 T01761002  RH  030%=      5-min Rain = 0
KPVS 150435Z 21011KT 18/00 A30 RMK A01 T017600-0  RH  031%=      5-min Rain = 0
KPVS 150440Z 21012KT 18/00 A2999 RMK A01 T01790000  RH  030%=      5-min Rain = 0
KPVS 150445Z 21010KT 18/M00 A2999 RMK A01 T01781001  RH  030%=      5-min Rain = 0
KPVS 150450Z 21009KT 18/M00 A2999 RMK A01 T01751001  RH  031%=      5-min Rain = 0
KPVS 150455Z 21010KT 17/M00 A2999 RMK A01 T01731002  RH  031%=      5-min Rain = 0
KPVS 150500Z 20011KT 17/M00 A2999 RMK A01 T01731001  RH  031%=      5-min Rain = 0
KPVS 150505Z 21010KT 17/M00 A2999 RMK A01 T01711001  RH  032%=      5-min Rain = 0
KPVS 150510Z 21010KT 17/M00 A2999 RMK A01 T01701002  RH  031%=      5-min Rain = 0
KPVS 150515Z 21011G16KT 17/M00 A2999 RMK A01 T01731001  RH  031%=      5-min Rain = 0
KPVS 150520Z 21012KT 17/M00 A2999 RMK A01 T01731002  RH  031%=      5-min Rain = 0
KPVS 150525Z 21010KT 17/M00 A30 RMK A01 T01701003  RH  031%=      5-min Rain = 0
KPVS 150530Z 21011KT 17/M00 A30 RMK A01 T01711003  RH  031%=      5-min Rain = 0
KPVS 150535Z 21012KT 17/M00 A2999 RMK A01 T01701004  RH  031%=      5-min Rain = 0
KPVS 150540Z 21012KT 17/M00 A30 RMK A01 T01701003  RH  031%=      5-min Rain = 0
KPVS 150545Z 21010KT 17/M00 A30 RMK A01 T01681001  RH  032%=      5-min Rain = 0
KPVS 150550Z 21011KT 17/00 A30 RMK A01 T016600-0  RH  033%=      5-min Rain = 0
KPVS 150555Z 21010KT 17/00 A2999 RMK A01 T01650001  RH  033%=      5-min Rain = 0

Page generated in 0.0104 seconds.